NFFN/NAN METAR and TAF weather

Enter ICAO airport designator
Station Type Date Time Source
NFFN METAR 2020/07/11 01:00 UTC NOAA

NFFN 110100Z 14011KT 9999 SCT030 30/20 Q1012 NOSIG


Station Type Date Time Source
NFFN Decoded METAR 2020/07/11 01:00 UTC NOAA

Nandi, Fiji (NFFN) 17-45S 177-27E 18M
Jul 10, 2020 - 09:00 PM EDT / 2020.07.11 0100 UTC
Wind: from the SE (140 degrees) at 13 MPH (11 KT):0
Visibility: greater than 7 mile(s):0
Sky conditions: partly cloudy
Temperature: 86 F (30 C)
Dew Point: 68 F (20 C)
Relative Humidity: 55%
Pressure (altimeter): 29.88 in. Hg (1012 hPa)
ob: NFFN 110100Z 14011KT 9999 SCT030 30/20 Q1012 NOSIG
cycle: 1

Station Type Date Time Source
NFFN TAF 2020/07/10 18:03 UTC NOAA

TAF TAF NFFN 101701Z 1018/1118 16012KT 9999 FEW030

Example: see airport list